sensor_id;sensor_type;location;lat;lon;timestamp;P1;durP1;ratioP1;P2;durP2;ratioP2
76417;SDS011;65250;47.602;19.002;2022-12-24T00:01:13;48.13;;;22.20;;
76417;SDS011;65250;47.602;19.002;2022-12-24T00:03:41;48.80;;;22.40;;
76417;SDS011;65250;47.602;19.002;2022-12-24T00:06:10;48.60;;;23.15;;
76417;SDS011;65250;47.602;19.002;2022-12-24T00:08:42;63.63;;;20.13;;
76417;SDS011;65250;47.602;19.002;2022-12-24T00:11:10;55.80;;;18.92;;
76417;SDS011;65250;47.602;19.002;2022-12-24T00:13:38;52.63;;;19.50;;
76417;SDS011;65250;47.602;19.002;2022-12-24T00:16:06;52.13;;;20.58;;
76417;SDS011;65250;47.602;19.002;2022-12-24T00:18:33;51.92;;;20.65;;
76417;SDS011;65250;47.602;19.002;2022-12-24T00:21:09;46.85;;;20.10;;
76417;SDS011;65250;47.602;19.002;2022-12-24T00:23:36;43.33;;;20.33;;
76417;SDS011;65250;47.602;19.002;2022-12-24T00:26:04;46.63;;;20.20;;
76417;SDS011;65250;47.602;19.002;2022-12-24T00:28:31;42.95;;;19.15;;
76417;SDS011;65250;47.602;19.002;2022-12-24T00:30:59;44.05;;;19.98;;
76417;SDS011;65250;47.602;19.002;2022-12-24T00:33:26;39.45;;;18.83;;
76417;SDS011;65250;47.602;19.002;2022-12-24T00:35:54;42.50;;;19.13;;
76417;SDS011;65250;47.602;19.002;2022-12-24T00:38:22;38.70;;;19.10;;
76417;SDS011;65250;47.602;19.002;2022-12-24T00:40:49;36.67;;;19.58;;
76417;SDS011;65250;47.602;19.002;2022-12-24T00:43:17;37.15;;;19.25;;
76417;SDS011;65250;47.602;19.002;2022-12-24T00:45:45;39.22;;;18.95;;
76417;SDS011;65250;47.602;19.002;2022-12-24T00:48:13;40.85;;;20.15;;
76417;SDS011;65250;47.602;19.002;2022-12-24T00:50:40;40.40;;;19.93;;
76417;SDS011;65250;47.602;19.002;2022-12-24T00:53:08;40.63;;;18.58;;
76417;SDS011;65250;47.602;19.002;2022-12-24T00:55:36;43.97;;;20.80;;
76417;SDS011;65250;47.602;19.002;2022-12-24T00:58:03;41.55;;;19.63;;
76417;SDS011;65250;47.602;19.002;2022-12-24T01:00:31;40.30;;;18.85;;
76417;SDS011;65250;47.602;19.002;2022-12-24T01:02:58;45.03;;;20.20;;
76417;SDS011;65250;47.602;19.002;2022-12-24T01:05:27;39.72;;;19.20;;
76417;SDS011;65250;47.602;19.002;2022-12-24T01:07:54;49.97;;;20.55;;
76417;SDS011;65250;47.602;19.002;2022-12-24T01:10:22;45.13;;;19.88;;
76417;SDS011;65250;47.602;19.002;2022-12-24T01:12:50;41.08;;;20.17;;
76417;SDS011;65250;47.602;19.002;2022-12-24T01:15:18;41.67;;;20.70;;
76417;SDS011;65250;47.602;19.002;2022-12-24T01:17:45;49.00;;;20.42;;
76417;SDS011;65250;47.602;19.002;2022-12-24T01:20:14;40.55;;;19.45;;
76417;SDS011;65250;47.602;19.002;2022-12-24T01:22:42;40.40;;;19.77;;
76417;SDS011;65250;47.602;19.002;2022-12-24T01:25:11;47.28;;;23.80;;
76417;SDS011;65250;47.602;19.002;2022-12-24T01:27:38;42.30;;;20.93;;
76417;SDS011;65250;47.602;19.002;2022-12-24T01:30:06;36.97;;;18.25;;
76417;SDS011;65250;47.602;19.002;2022-12-24T01:32:35;39.58;;;19.77;;
76417;SDS011;65250;47.602;19.002;2022-12-24T01:35:03;38.78;;;19.13;;
76417;SDS011;65250;47.602;19.002;2022-12-24T01:37:31;38.90;;;18.65;;
76417;SDS011;65250;47.602;19.002;2022-12-24T01:39:59;42.97;;;20.20;;
76417;SDS011;65250;47.602;19.002;2022-12-24T01:42:46;42.40;;;22.40;;
76417;SDS011;65250;47.602;19.002;2022-12-24T01:48:00;44.20;;;22.25;;
76417;SDS011;65250;47.602;19.002;2022-12-24T01:50:28;43.78;;;21.55;;
76417;SDS011;65250;47.602;19.002;2022-12-24T01:52:56;39.57;;;20.50;;
76417;SDS011;65250;47.602;19.002;2022-12-24T01:55:24;41.15;;;20.58;;
76417;SDS011;65250;47.602;19.002;2022-12-24T01:57:54;48.25;;;21.20;;
76417;SDS011;65250;47.602;19.002;2022-12-24T02:00:23;39.65;;;21.67;;
76417;SDS011;65250;47.602;19.002;2022-12-24T02:02:51;44.85;;;20.85;;
76417;SDS011;65250;47.602;19.002;2022-12-24T02:08:13;45.10;;;20.08;;
76417;SDS011;65250;47.602;19.002;2022-12-24T02:10:41;41.33;;;19.02;;
76417;SDS011;65250;47.602;19.002;2022-12-24T02:13:08;43.30;;;20.50;;
76417;SDS011;65250;47.602;19.002;2022-12-24T02:15:41;40.40;;;18.70;;
76417;SDS011;65250;47.602;19.002;2022-12-24T02:18:24;42.30;;;20.37;;
76417;SDS011;65250;47.602;19.002;2022-12-24T02:21:04;46.55;;;20.00;;
76417;SDS011;65250;47.602;19.002;2022-12-24T02:32:16;38.47;;;19.60;;
76417;SDS011;65250;47.602;19.002;2022-12-24T02:34:51;36.65;;;19.00;;
76417;SDS011;65250;47.602;19.002;2022-12-24T02:37:40;45.70;;;20.27;;
76417;SDS011;65250;47.602;19.002;2022-12-24T02:40:11;37.72;;;20.35;;
76417;SDS011;65250;47.602;19.002;2022-12-24T02:42:45;36.92;;;19.20;;
76417;SDS011;65250;47.602;19.002;2022-12-24T02:45:21;36.50;;;18.80;;
76417;SDS011;65250;47.602;19.002;2022-12-24T02:47:49;36.90;;;19.75;;
76417;SDS011;65250;47.602;19.002;2022-12-24T02:50:17;36.50;;;19.60;;
76417;SDS011;65250;47.602;19.002;2022-12-24T02:52:45;34.30;;;18.52;;
76417;SDS011;65250;47.602;19.002;2022-12-24T03:09:17;37.15;;;19.20;;
76417;SDS011;65250;47.602;19.002;2022-12-24T03:11:54;32.07;;;17.97;;
76417;SDS011;65250;47.602;19.002;2022-12-24T03:14:24;35.80;;;18.42;;
76417;SDS011;65250;47.602;19.002;2022-12-24T03:16:53;30.58;;;17.92;;
76417;SDS011;65250;47.602;19.002;2022-12-24T03:19:21;36.05;;;18.70;;
76417;SDS011;65250;47.602;19.002;2022-12-24T03:21:49;32.22;;;18.50;;
76417;SDS011;65250;47.602;19.002;2022-12-24T03:24:17;33.73;;;18.00;;
76417;SDS011;65250;47.602;19.002;2022-12-24T03:26:46;32.92;;;17.85;;
76417;SDS011;65250;47.602;19.002;2022-12-24T03:29:14;31.48;;;18.10;;
76417;SDS011;65250;47.602;19.002;2022-12-24T03:31:43;28.92;;;17.45;;
76417;SDS011;65250;47.602;19.002;2022-12-24T03:34:13;32.08;;;18.73;;
76417;SDS011;65250;47.602;19.002;2022-12-24T03:36:41;32.30;;;17.80;;
76417;SDS011;65250;47.602;19.002;2022-12-24T03:39:08;31.67;;;17.55;;
76417;SDS011;65250;47.602;19.002;2022-12-24T03:41:36;33.83;;;18.85;;
76417;SDS011;65250;47.602;19.002;2022-12-24T03:44:04;33.55;;;18.60;;
76417;SDS011;65250;47.602;19.002;2022-12-24T03:46:31;27.02;;;16.83;;
76417;SDS011;65250;47.602;19.002;2022-12-24T03:48:59;30.97;;;15.87;;
76417;SDS011;65250;47.602;19.002;2022-12-24T03:51:27;30.67;;;15.68;;
76417;SDS011;65250;47.602;19.002;2022-12-24T03:53:55;26.90;;;15.38;;
76417;SDS011;65250;47.602;19.002;2022-12-24T03:56:23;26.88;;;15.27;;
76417;SDS011;65250;47.602;19.002;2022-12-24T03:58:51;23.70;;;14.10;;
76417;SDS011;65250;47.602;19.002;2022-12-24T04:01:19;23.13;;;13.40;;
76417;SDS011;65250;47.602;19.002;2022-12-24T04:03:47;28.17;;;13.50;;
76417;SDS011;65250;47.602;19.002;2022-12-24T04:06:15;22.73;;;12.63;;
76417;SDS011;65250;47.602;19.002;2022-12-24T04:08:43;24.05;;;12.80;;
76417;SDS011;65250;47.602;19.002;2022-12-24T04:11:12;19.77;;;12.85;;
76417;SDS011;65250;47.602;19.002;2022-12-24T04:13:41;24.90;;;14.57;;
76417;SDS011;65250;47.602;19.002;2022-12-24T04:16:13;22.23;;;13.38;;
76417;SDS011;65250;47.602;19.002;2022-12-24T04:18:41;22.48;;;13.20;;
76417;SDS011;65250;47.602;19.002;2022-12-24T04:21:09;25.08;;;13.50;;
76417;SDS011;65250;47.602;19.002;2022-12-24T04:23:38;22.42;;;12.57;;
76417;SDS011;65250;47.602;19.002;2022-12-24T04:26:07;22.20;;;14.03;;
76417;SDS011;65250;47.602;19.002;2022-12-24T04:28:36;23.15;;;14.27;;
76417;SDS011;65250;47.602;19.002;2022-12-24T04:31:06;22.85;;;13.80;;
76417;SDS011;65250;47.602;19.002;2022-12-24T04:33:37;25.55;;;12.98;;
76417;SDS011;65250;47.602;19.002;2022-12-24T04:36:05;23.63;;;13.02;;
76417;SDS011;65250;47.602;19.002;2022-12-24T04:38:33;22.93;;;13.70;;
76417;SDS011;65250;47.602;19.002;2022-12-24T04:41:02;21.35;;;12.27;;
76417;SDS011;65250;47.602;19.002;2022-12-24T04:43:31;20.27;;;12.82;;
76417;SDS011;65250;47.602;19.002;2022-12-24T04:46:09;23.48;;;13.02;;
76417;SDS011;65250;47.602;19.002;2022-12-24T04:48:40;21.48;;;13.15;;
76417;SDS011;65250;47.602;19.002;2022-12-24T04:51:08;21.27;;;12.67;;
76417;SDS011;65250;47.602;19.002;2022-12-24T04:53:37;21.75;;;11.90;;
76417;SDS011;65250;47.602;19.002;2022-12-24T04:56:11;19.67;;;12.27;;
76417;SDS011;65250;47.602;19.002;2022-12-24T04:58:42;20.88;;;11.43;;
76417;SDS011;65250;47.602;19.002;2022-12-24T05:01:15;19.92;;;12.45;;
76417;SDS011;65250;47.602;19.002;2022-12-24T05:03:44;20.63;;;12.00;;
76417;SDS011;65250;47.602;19.002;2022-12-24T05:06:13;20.05;;;11.95;;
76417;SDS011;65250;47.602;19.002;2022-12-24T05:08:41;17.60;;;10.77;;
76417;SDS011;65250;47.602;19.002;2022-12-24T05:11:09;21.73;;;11.65;;
76417;SDS011;65250;47.602;19.002;2022-12-24T05:13:40;16.02;;;10.98;;
76417;SDS011;65250;47.602;19.002;2022-12-24T05:16:14;19.57;;;11.23;;
76417;SDS011;65250;47.602;19.002;2022-12-24T05:18:42;19.17;;;11.10;;
76417;SDS011;65250;47.602;19.002;2022-12-24T05:21:11;18.10;;;10.73;;
76417;SDS011;65250;47.602;19.002;2022-12-24T05:23:41;19.38;;;10.63;;
76417;SDS011;65250;47.602;19.002;2022-12-24T05:26:31;17.48;;;9.75;;
76417;SDS011;65250;47.602;19.002;2022-12-24T05:29:04;16.83;;;10.37;;
76417;SDS011;65250;47.602;19.002;2022-12-24T05:31:32;16.95;;;9.93;;
76417;SDS011;65250;47.602;19.002;2022-12-24T05:34:00;16.50;;;9.98;;
76417;SDS011;65250;47.602;19.002;2022-12-24T05:36:29;17.95;;;10.02;;
76417;SDS011;65250;47.602;19.002;2022-12-24T05:38:56;15.25;;;9.45;;
76417;SDS011;65250;47.602;19.002;2022-12-24T05:41:24;17.47;;;9.80;;
76417;SDS011;65250;47.602;19.002;2022-12-24T05:43:51;16.77;;;10.30;;
76417;SDS011;65250;47.602;19.002;2022-12-24T05:46:20;17.55;;;10.45;;
76417;SDS011;65250;47.602;19.002;2022-12-24T05:48:49;16.70;;;9.63;;
76417;SDS011;65250;47.602;19.002;2022-12-24T05:51:18;14.90;;;9.68;;
76417;SDS011;65250;47.602;19.002;2022-12-24T05:53:49;14.40;;;9.57;;
76417;SDS011;65250;47.602;19.002;2022-12-24T05:56:19;14.38;;;8.70;;
76417;SDS011;65250;47.602;19.002;2022-12-24T05:58:49;16.75;;;9.70;;
76417;SDS011;65250;47.602;19.002;2022-12-24T06:01:16;14.90;;;8.68;;
76417;SDS011;65250;47.602;19.002;2022-12-24T06:03:44;14.57;;;8.40;;
76417;SDS011;65250;47.602;19.002;2022-12-24T06:06:13;15.57;;;9.00;;
76417;SDS011;65250;47.602;19.002;2022-12-24T06:08:41;16.08;;;9.10;;
76417;SDS011;65250;47.602;19.002;2022-12-24T06:11:11;16.63;;;9.73;;
76417;SDS011;65250;47.602;19.002;2022-12-24T06:13:39;16.70;;;9.93;;
76417;SDS011;65250;47.602;19.002;2022-12-24T06:16:08;17.55;;;9.82;;
76417;SDS011;65250;47.602;19.002;2022-12-24T06:18:39;17.10;;;10.03;;
76417;SDS011;65250;47.602;19.002;2022-12-24T06:21:07;15.35;;;8.98;;
76417;SDS011;65250;47.602;19.002;2022-12-24T06:23:36;14.75;;;9.95;;
76417;SDS011;65250;47.602;19.002;2022-12-24T06:26:05;16.33;;;8.38;;
76417;SDS011;65250;47.602;19.002;2022-12-24T06:28:34;14.15;;;8.23;;
76417;SDS011;65250;47.602;19.002;2022-12-24T06:31:03;16.57;;;9.20;;
76417;SDS011;65250;47.602;19.002;2022-12-24T06:33:32;17.33;;;9.93;;
76417;SDS011;65250;47.602;19.002;2022-12-24T06:36:00;13.57;;;8.48;;
76417;SDS011;65250;47.602;19.002;2022-12-24T06:38:30;13.65;;;7.70;;
76417;SDS011;65250;47.602;19.002;2022-12-24T06:40:58;13.80;;;9.05;;
76417;SDS011;65250;47.602;19.002;2022-12-24T06:43:25;14.90;;;9.13;;
76417;SDS011;65250;47.602;19.002;2022-12-24T06:45:52;15.75;;;8.95;;
76417;SDS011;65250;47.602;19.002;2022-12-24T06:48:20;14.05;;;8.40;;
76417;SDS011;65250;47.602;19.002;2022-12-24T06:50:47;15.50;;;8.70;;
76417;SDS011;65250;47.602;19.002;2022-12-24T06:53:15;14.35;;;8.63;;
76417;SDS011;65250;47.602;19.002;2022-12-24T06:55:42;13.67;;;8.57;;
76417;SDS011;65250;47.602;19.002;2022-12-24T06:58:10;13.70;;;8.25;;
76417;SDS011;65250;47.602;19.002;2022-12-24T07:00:37;14.60;;;8.30;;
76417;SDS011;65250;47.602;19.002;2022-12-24T07:03:05;11.63;;;7.75;;
76417;SDS011;65250;47.602;19.002;2022-12-24T07:05:32;11.68;;;7.03;;
76417;SDS011;65250;47.602;19.002;2022-12-24T07:08:00;12.97;;;7.97;;
76417;SDS011;65250;47.602;19.002;2022-12-24T07:10:27;10.35;;;7.22;;
76417;SDS011;65250;47.602;19.002;2022-12-24T07:12:55;11.98;;;7.50;;
76417;SDS011;65250;47.602;19.002;2022-12-24T07:15:23;11.02;;;7.20;;
76417;SDS011;65250;47.602;19.002;2022-12-24T07:17:50;13.63;;;8.18;;
76417;SDS011;65250;47.602;19.002;2022-12-24T07:20:18;12.30;;;7.27;;
76417;SDS011;65250;47.602;19.002;2022-12-24T07:22:46;13.48;;;8.07;;
76417;SDS011;65250;47.602;19.002;2022-12-24T07:25:13;13.82;;;8.10;;
76417;SDS011;65250;47.602;19.002;2022-12-24T07:27:41;11.65;;;7.45;;
76417;SDS011;65250;47.602;19.002;2022-12-24T07:30:09;12.63;;;7.38;;
76417;SDS011;65250;47.602;19.002;2022-12-24T07:32:37;11.93;;;6.93;;
76417;SDS011;65250;47.602;19.002;2022-12-24T07:35:04;11.52;;;7.05;;
76417;SDS011;65250;47.602;19.002;2022-12-24T07:37:32;11.55;;;7.22;;
76417;SDS011;65250;47.602;19.002;2022-12-24T07:39:59;9.90;;;6.80;;
76417;SDS011;65250;47.602;19.002;2022-12-24T07:42:27;10.15;;;6.38;;
76417;SDS011;65250;47.602;19.002;2022-12-24T07:44:54;9.97;;;6.40;;
76417;SDS011;65250;47.602;19.002;2022-12-24T07:47:22;10.95;;;6.82;;
76417;SDS011;65250;47.602;19.002;2022-12-24T07:49:50;10.75;;;6.68;;
76417;SDS011;65250;47.602;19.002;2022-12-24T07:52:17;9.98;;;6.65;;
76417;SDS011;65250;47.602;19.002;2022-12-24T07:54:45;11.90;;;6.70;;
76417;SDS011;65250;47.602;19.002;2022-12-24T07:57:12;10.33;;;6.40;;
76417;SDS011;65250;47.602;19.002;2022-12-24T07:59:40;10.70;;;6.88;;
76417;SDS011;65250;47.602;19.002;2022-12-24T08:02:10;8.65;;;5.43;;
76417;SDS011;65250;47.602;19.002;2022-12-24T08:04:44;9.45;;;5.47;;
76417;SDS011;65250;47.602;19.002;2022-12-24T08:07:11;8.85;;;5.78;;
76417;SDS011;65250;47.602;19.002;2022-12-24T08:09:38;10.93;;;5.80;;
76417;SDS011;65250;47.602;19.002;2022-12-24T08:12:05;7.65;;;4.85;;
76417;SDS011;65250;47.602;19.002;2022-12-24T08:14:33;6.75;;;3.95;;
76417;SDS011;65250;47.602;19.002;2022-12-24T08:17:00;8.65;;;5.15;;
76417;SDS011;65250;47.602;19.002;2022-12-24T08:19:28;8.02;;;4.35;;
76417;SDS011;65250;47.602;19.002;2022-12-24T08:21:56;7.97;;;4.50;;
76417;SDS011;65250;47.602;19.002;2022-12-24T08:24:23;5.70;;;3.80;;
76417;SDS011;65250;47.602;19.002;2022-12-24T08:26:51;7.97;;;4.28;;
76417;SDS011;65250;47.602;19.002;2022-12-24T08:29:19;6.30;;;3.55;;
76417;SDS011;65250;47.602;19.002;2022-12-24T08:31:46;8.13;;;3.90;;
76417;SDS011;65250;47.602;19.002;2022-12-24T08:34:14;5.90;;;3.60;;
76417;SDS011;65250;47.602;19.002;2022-12-24T08:36:42;6.28;;;3.42;;
76417;SDS011;65250;47.602;19.002;2022-12-24T08:39:09;7.03;;;3.45;;
76417;SDS011;65250;47.602;19.002;2022-12-24T08:41:36;5.20;;;3.30;;
76417;SDS011;65250;47.602;19.002;2022-12-24T08:44:04;4.40;;;3.15;;
76417;SDS011;65250;47.602;19.002;2022-12-24T08:46:31;5.00;;;2.83;;
76417;SDS011;65250;47.602;19.002;2022-12-24T08:48:58;3.35;;;2.80;;
76417;SDS011;65250;47.602;19.002;2022-12-24T08:51:26;3.65;;;2.85;;
76417;SDS011;65250;47.602;19.002;2022-12-24T08:53:53;5.68;;;3.60;;
76417;SDS011;65250;47.602;19.002;2022-12-24T08:56:21;6.95;;;3.95;;
76417;SDS011;65250;47.602;19.002;2022-12-24T08:58:48;7.13;;;3.70;;
76417;SDS011;65250;47.602;19.002;2022-12-24T09:01:17;5.80;;;3.88;;
76417;SDS011;65250;47.602;19.002;2022-12-24T09:03:46;6.13;;;3.70;;
76417;SDS011;65250;47.602;19.002;2022-12-24T09:06:14;5.30;;;3.38;;
76417;SDS011;65250;47.602;19.002;2022-12-24T09:08:42;4.80;;;3.90;;
76417;SDS011;65250;47.602;19.002;2022-12-24T09:11:14;5.73;;;3.10;;
76417;SDS011;65250;47.602;19.002;2022-12-24T09:13:43;6.38;;;4.20;;
76417;SDS011;65250;47.602;19.002;2022-12-24T09:16:11;6.57;;;3.85;;
76417;SDS011;65250;47.602;19.002;2022-12-24T09:18:39;6.22;;;3.58;;
76417;SDS011;65250;47.602;19.002;2022-12-24T09:21:09;5.45;;;3.20;;
76417;SDS011;65250;47.602;19.002;2022-12-24T09:23:40;4.80;;;2.90;;
76417;SDS011;65250;47.602;19.002;2022-12-24T09:26:11;4.22;;;2.97;;
76417;SDS011;65250;47.602;19.002;2022-12-24T09:28:40;5.40;;;3.50;;
76417;SDS011;65250;47.602;19.002;2022-12-24T09:31:08;4.90;;;2.92;;
76417;SDS011;65250;47.602;19.002;2022-12-24T09:33:37;6.00;;;3.50;;
76417;SDS011;65250;47.602;19.002;2022-12-24T09:36:06;9.03;;;4.10;;
76417;SDS011;65250;47.602;19.002;2022-12-24T09:38:34;7.47;;;4.03;;
76417;SDS011;65250;47.602;19.002;2022-12-24T09:43:39;5.03;;;2.80;;
76417;SDS011;65250;47.602;19.002;2022-12-24T09:48:47;3.73;;;2.40;;
76417;SDS011;65250;47.602;19.002;2022-12-24T09:51:25;4.10;;;2.50;;
76417;SDS011;65250;47.602;19.002;2022-12-24T09:54:05;4.30;;;2.72;;
76417;SDS011;65250;47.602;19.002;2022-12-24T09:56:39;5.15;;;2.47;;
76417;SDS011;65250;47.602;19.002;2022-12-24T09:59:16;3.90;;;2.65;;
76417;SDS011;65250;47.602;19.002;2022-12-24T10:01:44;3.83;;;2.40;;
76417;SDS011;65250;47.602;19.002;2022-12-24T10:04:14;4.40;;;2.50;;
76417;SDS011;65250;47.602;19.002;2022-12-24T10:09:38;2.78;;;1.95;;
76417;SDS011;65250;47.602;19.002;2022-12-24T10:12:21;4.88;;;2.75;;
76417;SDS011;65250;47.602;19.002;2022-12-24T10:14:58;3.60;;;2.20;;
76417;SDS011;65250;47.602;19.002;2022-12-24T10:20:49;4.53;;;2.42;;
76417;SDS011;65250;47.602;19.002;2022-12-24T10:23:33;5.88;;;3.10;;
76417;SDS011;65250;47.602;19.002;2022-12-24T10:28:45;4.53;;;2.43;;
76417;SDS011;65250;47.602;19.002;2022-12-24T10:31:15;4.88;;;2.70;;
76417;SDS011;65250;47.602;19.002;2022-12-24T10:33:47;4.20;;;2.95;;
76417;SDS011;65250;47.602;19.002;2022-12-24T10:36:19;3.88;;;2.40;;
76417;SDS011;65250;47.602;19.002;2022-12-24T10:38:48;5.28;;;2.60;;
76417;SDS011;65250;47.602;19.002;2022-12-24T10:41:15;5.17;;;3.07;;
76417;SDS011;65250;47.602;19.002;2022-12-24T10:43:43;4.93;;;2.75;;
76417;SDS011;65250;47.602;19.002;2022-12-24T10:46:34;5.20;;;2.97;;
76417;SDS011;65250;47.602;19.002;2022-12-24T10:49:05;5.00;;;2.55;;
76417;SDS011;65250;47.602;19.002;2022-12-24T10:54:21;6.00;;;2.90;;
76417;SDS011;65250;47.602;19.002;2022-12-24T10:56:57;4.38;;;2.80;;
76417;SDS011;65250;47.602;19.002;2022-12-24T10:59:27;4.00;;;2.50;;
76417;SDS011;65250;47.602;19.002;2022-12-24T11:01:58;5.75;;;2.67;;
76417;SDS011;65250;47.602;19.002;2022-12-24T11:04:29;4.53;;;2.58;;
76417;SDS011;65250;47.602;19.002;2022-12-24T11:09:31;5.90;;;2.40;;
76417;SDS011;65250;47.602;19.002;2022-12-24T11:12:03;4.82;;;1.70;;
76417;SDS011;65250;47.602;19.002;2022-12-24T11:14:36;5.40;;;1.83;;
76417;SDS011;65250;47.602;19.002;2022-12-24T11:17:05;5.40;;;1.70;;
76417;SDS011;65250;47.602;19.002;2022-12-24T11:19:34;2.97;;;1.20;;
76417;SDS011;65250;47.602;19.002;2022-12-24T11:22:15;6.43;;;1.85;;
76417;SDS011;65250;47.602;19.002;2022-12-24T11:24:45;4.43;;;1.75;;
76417;SDS011;65250;47.602;19.002;2022-12-24T11:27:25;2.40;;;1.20;;
76417;SDS011;65250;47.602;19.002;2022-12-24T11:32:43;3.10;;;1.00;;
76417;SDS011;65250;47.602;19.002;2022-12-24T11:35:19;2.05;;;1.17;;
76417;SDS011;65250;47.602;19.002;2022-12-24T11:40:30;2.72;;;1.30;;
76417;SDS011;65250;47.602;19.002;2022-12-24T11:43:01;2.58;;;1.30;;
76417;SDS011;65250;47.602;19.002;2022-12-24T11:45:31;3.17;;;1.50;;
76417;SDS011;65250;47.602;19.002;2022-12-24T11:48:00;5.15;;;1.33;;
76417;SDS011;65250;47.602;19.002;2022-12-24T11:58:20;3.27;;;1.00;;
76417;SDS011;65250;47.602;19.002;2022-12-24T12:00:55;3.92;;;1.15;;
76417;SDS011;65250;47.602;19.002;2022-12-24T12:03:55;3.55;;;1.45;;
76417;SDS011;65250;47.602;19.002;2022-12-24T12:08:59;3.72;;;1.15;;
76417;SDS011;65250;47.602;19.002;2022-12-24T12:11:29;3.00;;;0.73;;
76417;SDS011;65250;47.602;19.002;2022-12-24T12:13:59;3.53;;;1.00;;
76417;SDS011;65250;47.602;19.002;2022-12-24T12:16:31;2.47;;;1.33;;
76417;SDS011;65250;47.602;19.002;2022-12-24T12:19:27;3.53;;;0.90;;
76417;SDS011;65250;47.602;19.002;2022-12-24T12:21:57;4.78;;;1.15;;
76417;SDS011;65250;47.602;19.002;2022-12-24T12:24:27;3.10;;;1.07;;
76417;SDS011;65250;47.602;19.002;2022-12-24T12:27:04;2.50;;;1.20;;
76417;SDS011;65250;47.602;19.002;2022-12-24T12:29:44;4.35;;;1.58;;
76417;SDS011;65250;47.602;19.002;2022-12-24T12:32:26;6.10;;;1.55;;
76417;SDS011;65250;47.602;19.002;2022-12-24T12:35:08;4.38;;;1.77;;
76417;SDS011;65250;47.602;19.002;2022-12-24T12:37:47;3.40;;;1.30;;
76417;SDS011;65250;47.602;19.002;2022-12-24T12:40:20;4.13;;;1.00;;
76417;SDS011;65250;47.602;19.002;2022-12-24T12:43:01;5.05;;;1.08;;
76417;SDS011;65250;47.602;19.002;2022-12-24T12:46:01;3.28;;;0.77;;
76417;SDS011;65250;47.602;19.002;2022-12-24T12:54:18;3.10;;;1.48;;
76417;SDS011;65250;47.602;19.002;2022-12-24T12:56:53;2.85;;;1.40;;
76417;SDS011;65250;47.602;19.002;2022-12-24T12:59:33;5.38;;;1.42;;
76417;SDS011;65250;47.602;19.002;2022-12-24T13:02:11;4.18;;;1.27;;
76417;SDS011;65250;47.602;19.002;2022-12-24T13:15:34;5.03;;;2.00;;
76417;SDS011;65250;47.602;19.002;2022-12-24T13:21:20;4.53;;;1.40;;
76417;SDS011;65250;47.602;19.002;2022-12-24T13:23:49;2.65;;;1.50;;
76417;SDS011;65250;47.602;19.002;2022-12-24T13:26:16;3.50;;;1.48;;
76417;SDS011;65250;47.602;19.002;2022-12-24T13:28:45;2.65;;;1.38;;
76417;SDS011;65250;47.602;19.002;2022-12-24T13:33:47;3.47;;;1.50;;
76417;SDS011;65250;47.602;19.002;2022-12-24T13:36:16;3.22;;;1.50;;
76417;SDS011;65250;47.602;19.002;2022-12-24T13:46:56;3.70;;;1.23;;
76417;SDS011;65250;47.602;19.002;2022-12-24T13:49:30;2.20;;;1.30;;
76417;SDS011;65250;47.602;19.002;2022-12-24T13:54:41;6.35;;;2.70;;
76417;SDS011;65250;47.602;19.002;2022-12-24T14:00:00;8.10;;;2.88;;
76417;SDS011;65250;47.602;19.002;2022-12-24T14:02:36;6.28;;;3.35;;
76417;SDS011;65250;47.602;19.002;2022-12-24T14:05:14;6.45;;;2.10;;
76417;SDS011;65250;47.602;19.002;2022-12-24T14:07:47;3.72;;;1.77;;
76417;SDS011;65250;47.602;19.002;2022-12-24T14:10:20;3.33;;;1.57;;
76417;SDS011;65250;47.602;19.002;2022-12-24T14:12:50;3.38;;;1.42;;
76417;SDS011;65250;47.602;19.002;2022-12-24T14:18:32;3.15;;;1.55;;
76417;SDS011;65250;47.602;19.002;2022-12-24T14:21:03;5.20;;;1.55;;
76417;SDS011;65250;47.602;19.002;2022-12-24T14:23:46;3.93;;;1.67;;
76417;SDS011;65250;47.602;19.002;2022-12-24T14:26:16;5.32;;;1.58;;
76417;SDS011;65250;47.602;19.002;2022-12-24T14:28:49;5.55;;;1.92;;
76417;SDS011;65250;47.602;19.002;2022-12-24T14:31:23;4.75;;;1.70;;
76417;SDS011;65250;47.602;19.002;2022-12-24T14:33:50;3.70;;;1.70;;
76417;SDS011;65250;47.602;19.002;2022-12-24T14:36:19;6.00;;;1.30;;
76417;SDS011;65250;47.602;19.002;2022-12-24T14:38:48;6.13;;;1.40;;
76417;SDS011;65250;47.602;19.002;2022-12-24T14:46:34;5.22;;;2.08;;
76417;SDS011;65250;47.602;19.002;2022-12-24T14:49:10;5.50;;;2.53;;
76417;SDS011;65250;47.602;19.002;2022-12-24T14:57:08;5.20;;;1.80;;
76417;SDS011;65250;47.602;19.002;2022-12-24T15:05:03;6.93;;;2.10;;
76417;SDS011;65250;47.602;19.002;2022-12-24T15:07:34;3.88;;;1.65;;
76417;SDS011;65250;47.602;19.002;2022-12-24T15:13:06;4.50;;;1.30;;
76417;SDS011;65250;47.602;19.002;2022-12-24T15:15:48;3.27;;;1.57;;
76417;SDS011;65250;47.602;19.002;2022-12-24T15:18:19;6.63;;;1.98;;
76417;SDS011;65250;47.602;19.002;2022-12-24T15:20:50;4.43;;;1.77;;
76417;SDS011;65250;47.602;19.002;2022-12-24T15:23:29;4.32;;;2.20;;
76417;SDS011;65250;47.602;19.002;2022-12-24T15:26:22;4.55;;;2.28;;
76417;SDS011;65250;47.602;19.002;2022-12-24T15:28:58;5.60;;;2.07;;
76417;SDS011;65250;47.602;19.002;2022-12-24T15:31:29;6.70;;;2.42;;
76417;SDS011;65250;47.602;19.002;2022-12-24T15:33:58;7.07;;;2.70;;
76417;SDS011;65250;47.602;19.002;2022-12-24T15:36:27;7.85;;;2.53;;
76417;SDS011;65250;47.602;19.002;2022-12-24T15:38:59;5.93;;;2.60;;
76417;SDS011;65250;47.602;19.002;2022-12-24T15:41:31;6.30;;;2.57;;
76417;SDS011;65250;47.602;19.002;2022-12-24T15:44:04;6.85;;;2.83;;
76417;SDS011;65250;47.602;19.002;2022-12-24T15:46:31;6.05;;;3.08;;
76417;SDS011;65250;47.602;19.002;2022-12-24T15:48:59;6.47;;;3.00;;
76417;SDS011;65250;47.602;19.002;2022-12-24T15:51:29;6.32;;;2.80;;
76417;SDS011;65250;47.602;19.002;2022-12-24T15:54:10;5.97;;;2.33;;
76417;SDS011;65250;47.602;19.002;2022-12-24T15:56:40;6.68;;;3.13;;
76417;SDS011;65250;47.602;19.002;2022-12-24T15:59:34;5.28;;;2.50;;
76417;SDS011;65250;47.602;19.002;2022-12-24T16:02:17;5.65;;;2.53;;
76417;SDS011;65250;47.602;19.002;2022-12-24T16:04:48;6.75;;;2.50;;
76417;SDS011;65250;47.602;19.002;2022-12-24T16:07:22;7.23;;;2.90;;
76417;SDS011;65250;47.602;19.002;2022-12-24T16:09:51;8.48;;;3.95;;
76417;SDS011;65250;47.602;19.002;2022-12-24T16:12:22;12.77;;;4.72;;
76417;SDS011;65250;47.602;19.002;2022-12-24T16:14:55;13.95;;;5.35;;
76417;SDS011;65250;47.602;19.002;2022-12-24T16:17:28;13.32;;;5.55;;
76417;SDS011;65250;47.602;19.002;2022-12-24T16:20:01;8.97;;;4.57;;
76417;SDS011;65250;47.602;19.002;2022-12-24T16:22:31;10.05;;;3.55;;
76417;SDS011;65250;47.602;19.002;2022-12-24T16:24:59;4.57;;;2.80;;
76417;SDS011;65250;47.602;19.002;2022-12-24T16:27:47;6.10;;;1.90;;
76417;SDS011;65250;47.602;19.002;2022-12-24T16:30:17;7.18;;;2.05;;
76417;SDS011;65250;47.602;19.002;2022-12-24T16:32:45;5.97;;;2.37;;
76417;SDS011;65250;47.602;19.002;2022-12-24T16:35:20;6.38;;;2.97;;
76417;SDS011;65250;47.602;19.002;2022-12-24T16:37:50;6.82;;;3.40;;
76417;SDS011;65250;47.602;19.002;2022-12-24T16:40:17;6.30;;;2.90;;
76417;SDS011;65250;47.602;19.002;2022-12-24T16:42:52;7.15;;;3.20;;
76417;SDS011;65250;47.602;19.002;2022-12-24T16:45:38;12.87;;;4.00;;